SULAYMANIYAH INTERNATIONAL AIRPORT
  • SulyAir
  • SulyAir
1 1
Arrival

ArrivalsMore >>

Departure

DeparturesMore >>

TAF

TAF ORSU 191100Z 1912/2012 28010KT CAVOK
BECMG 1921/1923 33006KT
BECMG 2007/2009 24010KT=

METARs

METAR ORSU 191400Z 30007KT CAVOK 36/M02 Q1016=